createdAt,value
2023-03-17T00:01:22.398Z,49.93
2023-03-17T00:03:51.573Z,144.23
2023-03-17T00:06:25.120Z,85.80
2023-03-17T00:08:53.073Z,86.63
2023-03-17T00:11:21.500Z,89.50
2023-03-17T00:13:51.176Z,68.97
2023-03-17T00:16:22.066Z,92.13
2023-03-17T00:18:51.423Z,77.33
2023-03-17T00:21:23.813Z,82.43
2023-03-17T00:23:54.058Z,34.27
2023-03-17T00:26:22.017Z,60.00
2023-03-17T00:28:51.843Z,77.93
2023-03-17T00:31:23.546Z,25.43
2023-03-17T00:33:54.018Z,56.10
2023-03-17T00:36:23.939Z,107.57
2023-03-17T00:38:52.672Z,97.47
2023-03-17T00:41:20.879Z,100.03
2023-03-17T00:43:48.826Z,65.43
2023-03-17T00:46:22.022Z,84.90
2023-03-17T00:48:50.148Z,53.60
2023-03-17T00:51:18.074Z,78.63
2023-03-17T00:53:46.150Z,121.97
2023-03-17T00:56:15.955Z,87.90
2023-03-17T00:58:44.930Z,128.87
2023-03-17T01:01:13.418Z,96.67
2023-03-17T01:03:42.748Z,116.30
2023-03-17T01:06:13.802Z,103.43
2023-03-17T01:08:42.702Z,137.03
2023-03-17T01:11:18.659Z,73.60
2023-03-17T01:13:47.626Z,66.03
2023-03-17T01:16:16.005Z,42.30
2023-03-17T01:18:45.601Z,38.47
2023-03-17T01:21:14.010Z,91.90
2023-03-17T01:23:42.213Z,74.37
2023-03-17T01:26:10.323Z,93.83
2023-03-17T01:28:38.321Z,41.77
2023-03-17T01:31:06.450Z,98.10
2023-03-17T01:33:35.149Z,53.33
2023-03-17T01:36:04.592Z,58.67
2023-03-17T01:38:32.594Z,56.33
2023-03-17T01:41:02.314Z,237.70
2023-03-17T01:43:31.368Z,127.07
2023-03-17T01:46:27.581Z,94.33
2023-03-17T01:49:11.259Z,114.83
2023-03-17T01:51:47.610Z,72.70
2023-03-17T01:54:19.643Z,115.63
2023-03-17T01:56:52.517Z,76.73
2023-03-17T01:59:25.916Z,95.73
2023-03-17T02:01:59.026Z,37.97
2023-03-17T02:04:27.750Z,88.73
2023-03-17T02:06:58.892Z,92.90
2023-03-17T02:09:28.665Z,89.30
2023-03-17T02:11:58.066Z,62.17
2023-03-17T02:14:26.054Z,48.67
2023-03-17T02:16:54.625Z,66.73
2023-03-17T02:19:22.704Z,64.37
2023-03-17T02:21:53.809Z,123.87
2023-03-17T02:24:27.515Z,71.57
2023-03-17T02:26:58.359Z,40.97
2023-03-17T02:29:27.637Z,99.13
2023-03-17T02:31:55.670Z,34.47
2023-03-17T02:34:23.631Z,77.37
2023-03-17T02:36:53.112Z,91.70
2023-03-17T02:39:21.511Z,83.13
2023-03-17T02:41:49.560Z,49.33
2023-03-17T02:44:17.862Z,67.67
2023-03-17T02:46:46.320Z,80.30
2023-03-17T02:49:15.351Z,131.27
2023-03-17T02:51:43.324Z,95.27
2023-03-17T02:54:12.796Z,83.53
2023-03-17T02:56:40.915Z,107.40
2023-03-17T02:59:09.658Z,100.07
2023-03-17T03:01:38.900Z,64.43
2023-03-17T03:04:07.490Z,68.17
2023-03-17T03:06:36.107Z,88.00
2023-03-17T03:09:05.663Z,58.13
2023-03-17T03:11:34.994Z,109.70
2023-03-17T03:14:03.484Z,74.77
2023-03-17T03:16:31.438Z,53.00
2023-03-17T03:18:59.377Z,36.03
2023-03-17T03:21:27.660Z,142.33
2023-03-17T03:23:55.600Z,100.67
2023-03-17T03:26:23.800Z,56.67
2023-03-17T03:28:53.880Z,126.23
2023-03-17T03:31:22.997Z,54.90
2023-03-17T03:33:51.562Z,118.80
2023-03-17T03:36:20.410Z,141.87
2023-03-17T03:38:48.348Z,119.97
2023-03-17T03:41:16.453Z,113.23
2023-03-17T03:43:44.403Z,74.90
2023-03-17T03:46:13.732Z,110.90
2023-03-17T03:48:41.683Z,117.33
2023-03-17T03:51:09.621Z,101.87
2023-03-17T03:53:37.635Z,107.30
2023-03-17T03:56:06.387Z,72.53
2023-03-17T03:58:34.335Z,113.30
2023-03-17T04:01:06.157Z,118.57
2023-03-17T04:03:35.665Z,176.50
2023-03-17T04:06:04.462Z,32.47
2023-03-17T04:08:32.780Z,178.53
2023-03-17T04:11:00.771Z,71.00
2023-03-17T04:13:28.750Z,152.83
2023-03-17T04:15:56.790Z,104.73
2023-03-17T04:18:25.569Z,123.40
2023-03-17T04:20:54.903Z,125.43
2023-03-17T04:23:22.848Z,117.20
2023-03-17T04:25:51.948Z,90.13
2023-03-17T04:28:20.519Z,132.83
2023-03-17T04:30:48.467Z,190.03
2023-03-17T04:33:16.779Z,142.17
2023-03-17T04:35:44.949Z,82.90
2023-03-17T04:38:14.507Z,83.20
2023-03-17T04:40:42.663Z,147.97
2023-03-17T04:43:10.870Z,89.53
2023-03-17T04:45:38.945Z,112.13
2023-03-17T04:48:07.246Z,42.03
2023-03-17T04:50:35.621Z,79.50
2023-03-17T04:53:03.923Z,117.23
2023-03-17T04:55:33.207Z,104.03
2023-03-17T04:58:01.172Z,96.00
2023-03-17T05:00:29.464Z,82.40
2023-03-17T05:02:57.601Z,75.40
2023-03-17T05:05:25.536Z,80.57
2023-03-17T05:07:53.509Z,78.37
2023-03-17T05:10:21.431Z,114.30
2023-03-17T05:12:51.002Z,43.23
2023-03-17T05:15:19.216Z,190.07
2023-03-17T05:17:47.159Z,123.87
2023-03-17T05:20:15.631Z,129.07
2023-03-17T05:22:43.637Z,480.33
2023-03-17T05:25:11.614Z,110.73
2023-03-17T05:27:39.617Z,341.13
2023-03-17T05:30:11.684Z,111.33
2023-03-17T05:32:40.345Z,96.50
2023-03-17T05:35:09.085Z,114.27
2023-03-17T05:37:37.052Z,76.23
2023-03-17T05:40:05.709Z,162.50
2023-03-17T05:42:33.685Z,101.07
2023-03-17T05:45:01.636Z,85.57
2023-03-17T05:47:32.112Z,74.37
2023-03-17T05:50:00.060Z,72.47
2023-03-17T05:52:28.207Z,75.73
2023-03-17T05:54:56.768Z,259.80
2023-03-17T05:57:24.988Z,92.00
2023-03-17T05:59:52.924Z,50.07
2023-03-17T06:02:21.036Z,113.87
2023-03-17T06:04:50.583Z,100.70
2023-03-17T06:07:18.593Z,97.67
2023-03-17T06:09:46.529Z,125.63
2023-03-17T06:12:14.593Z,40.30
2023-03-17T06:14:42.599Z,36.60
2023-03-17T06:17:12.504Z,152.33
2023-03-17T06:19:40.713Z,57.93
2023-03-17T06:22:10.282Z,129.20
2023-03-17T06:24:38.441Z,51.00
2023-03-17T06:27:06.581Z,32.67
2023-03-17T06:29:34.582Z,80.70
2023-03-17T06:32:18.854Z,52.83
2023-03-17T06:34:48.265Z,51.37
2023-03-17T06:37:17.621Z,94.93
2023-03-17T06:39:45.774Z,106.93
2023-03-17T06:42:14.043Z,96.80
2023-03-17T06:44:41.994Z,71.23
2023-03-17T06:47:10.117Z,64.67
2023-03-17T06:49:38.297Z,105.40
2023-03-17T06:52:08.414Z,79.97
2023-03-17T06:54:37.708Z,27.13
2023-03-17T06:57:05.725Z,72.37
2023-03-17T06:59:33.722Z,72.10
2023-03-17T07:02:01.728Z,35.77
2023-03-17T07:04:29.819Z,84.40
2023-03-17T07:06:57.814Z,92.33
2023-03-17T07:09:25.803Z,403.17
2023-03-17T07:11:55.077Z,453.67
2023-03-17T07:14:23.036Z,543.27
2023-03-17T07:16:51.088Z,779.23
2023-03-17T07:19:19.046Z,759.47
2023-03-17T07:21:47.206Z,680.97
2023-03-17T07:24:15.416Z,762.07
2023-03-17T07:26:43.434Z,672.23
2023-03-17T07:29:12.764Z,676.67
2023-03-17T07:31:41.457Z,737.07
2023-03-17T07:34:10.465Z,663.23
2023-03-17T07:36:38.562Z,870.93
2023-03-17T07:39:06.557Z,782.23
2023-03-17T07:41:34.647Z,768.30
2023-03-17T07:44:03.946Z,763.07
2023-03-17T07:46:33.400Z,849.63
2023-03-17T07:49:01.695Z,829.90
2023-03-17T07:51:29.694Z,844.10
2023-03-17T07:54:03.529Z,866.00
2023-03-17T07:56:32.012Z,846.80
2023-03-17T07:59:00.446Z,929.27
2023-03-17T08:01:29.004Z,867.03
2023-03-17T08:03:58.681Z,792.13
2023-03-17T08:06:26.704Z,831.07
2023-03-17T08:08:55.798Z,810.50
2023-03-17T08:11:24.374Z,851.77
2023-03-17T08:13:52.323Z,602.87
2023-03-17T08:16:20.264Z,545.93
2023-03-17T08:18:48.214Z,700.93
2023-03-17T08:21:17.723Z,738.00
2023-03-17T08:23:45.733Z,481.83
2023-03-17T08:26:14.283Z,475.27
2023-03-17T08:28:43.033Z,705.63
2023-03-17T08:31:12.872Z,738.23
2023-03-17T08:33:42.333Z,732.40
2023-03-17T08:36:11.725Z,589.23
2023-03-17T08:38:42.589Z,990.80
2023-03-17T08:41:13.242Z,890.90
2023-03-17T08:43:43.905Z,683.47
2023-03-17T08:46:16.940Z,982.77
2023-03-17T08:48:46.788Z,719.60
2023-03-17T08:51:18.210Z,708.97
2023-03-17T08:53:48.682Z,820.70
2023-03-17T08:56:16.907Z,861.60
2023-03-17T08:58:45.249Z,778.50
2023-03-17T09:01:13.857Z,828.17
2023-03-17T09:03:42.042Z,915.63
2023-03-17T09:06:12.388Z,999.90
2023-03-17T09:08:44.986Z,932.10
2023-03-17T09:11:16.538Z,854.97
2023-03-17T09:13:46.453Z,959.07
2023-03-17T09:16:14.874Z,999.90
2023-03-17T09:18:43.095Z,999.90
2023-03-17T09:21:12.297Z,940.07
2023-03-17T09:23:41.117Z,826.47
2023-03-17T09:26:10.265Z,999.90
2023-03-17T09:28:39.773Z,999.90
2023-03-17T09:31:11.410Z,811.97
2023-03-17T09:33:39.787Z,800.70
2023-03-17T09:36:08.531Z,991.13
2023-03-17T09:38:37.503Z,910.67
2023-03-17T09:41:21.148Z,889.83
2023-03-17T09:43:55.646Z,938.20
2023-03-17T09:46:35.971Z,893.37
2023-03-17T09:49:08.655Z,962.20
2023-03-17T09:51:36.939Z,955.30
2023-03-17T09:54:08.452Z,933.00
2023-03-17T09:56:41.210Z,836.90
2023-03-17T09:59:31.319Z,973.87
2023-03-17T10:01:59.723Z,757.27
2023-03-17T10:04:29.204Z,775.07
2023-03-17T10:07:03.718Z,743.47
2023-03-17T10:09:40.131Z,998.10
2023-03-17T10:12:13.507Z,908.17
2023-03-17T10:14:57.324Z,858.23
2023-03-17T10:17:29.546Z,856.63
2023-03-17T10:20:01.772Z,985.30
2023-03-17T10:22:35.954Z,880.43
2023-03-17T10:25:09.231Z,999.90
2023-03-17T10:27:39.212Z,894.63
2023-03-17T10:30:17.311Z,886.97
2023-03-17T10:32:46.614Z,806.03
2023-03-17T10:35:16.622Z,856.03
2023-03-17T10:37:45.607Z,891.60
2023-03-17T10:40:22.806Z,838.50
2023-03-17T10:42:54.451Z,996.33
2023-03-17T10:45:28.783Z,913.57
2023-03-17T10:47:58.285Z,874.47
2023-03-17T10:50:31.400Z,883.03
2023-03-17T10:53:01.904Z,929.40
2023-03-17T10:55:33.169Z,880.57
2023-03-17T10:58:05.936Z,825.40
2023-03-17T11:00:38.600Z,930.60
2023-03-17T11:03:16.120Z,971.47
2023-03-17T11:05:56.748Z,999.90
2023-03-17T11:08:25.100Z,999.90
2023-03-17T11:10:57.542Z,907.70
2023-03-17T11:13:31.166Z,924.97
2023-03-17T11:16:11.647Z,999.90
2023-03-17T11:18:40.780Z,999.90
2023-03-17T11:21:11.379Z,927.00
2023-03-17T11:23:52.232Z,941.23
2023-03-17T11:26:40.483Z,934.40
2023-03-17T11:29:34.936Z,999.90
2023-03-17T11:32:15.317Z,993.07
2023-03-17T11:34:56.769Z,972.03
2023-03-17T11:37:36.140Z,994.60
2023-03-17T11:40:12.111Z,968.77
2023-03-17T11:42:50.583Z,999.90
2023-03-17T11:45:27.299Z,946.93
2023-03-17T11:48:20.489Z,994.10
2023-03-17T11:50:56.925Z,999.90
2023-03-17T11:53:52.932Z,999.90
2023-03-17T11:56:25.101Z,981.07
2023-03-17T11:58:57.352Z,878.17
2023-03-17T12:01:30.098Z,999.90
2023-03-17T12:04:11.535Z,955.67
2023-03-17T12:06:44.591Z,976.47
2023-03-17T12:09:26.224Z,950.50
2023-03-17T12:11:56.807Z,972.27
2023-03-17T12:14:30.099Z,950.33
2023-03-17T12:17:06.148Z,999.90
2023-03-17T12:19:42.475Z,889.23
2023-03-17T12:22:18.914Z,819.10
2023-03-17T12:24:54.619Z,900.07
2023-03-17T12:27:26.067Z,999.90
2023-03-17T12:29:59.348Z,942.97
2023-03-17T12:32:35.862Z,979.17
2023-03-17T12:35:20.183Z,932.30
2023-03-17T12:37:49.923Z,922.63
2023-03-17T12:40:24.040Z,844.03
2023-03-17T12:42:59.703Z,931.33
2023-03-17T12:45:51.523Z,857.10
2023-03-17T12:48:46.378Z,954.23
2023-03-17T12:51:45.752Z,830.17
2023-03-17T12:54:20.115Z,896.23
2023-03-17T12:56:49.955Z,998.93
2023-03-17T12:59:21.954Z,837.67
2023-03-17T13:01:58.513Z,900.63
2023-03-17T13:04:32.358Z,971.43
2023-03-17T13:07:10.070Z,948.77
2023-03-17T13:09:47.194Z,924.53
2023-03-17T13:12:50.700Z,999.90
2023-03-17T13:15:24.625Z,832.17
2023-03-17T13:17:53.767Z,941.23
2023-03-17T13:20:22.084Z,980.17
2023-03-17T13:23:13.052Z,976.73
2023-03-17T13:25:53.374Z,925.00
2023-03-17T13:28:27.083Z,976.47
2023-03-17T13:31:10.109Z,999.90
2023-03-17T13:33:44.742Z,952.47
2023-03-17T13:36:28.251Z,991.42
2023-03-17T13:39:35.881Z,999.90
2023-03-17T13:42:18.746Z,907.13
2023-03-17T13:45:04.199Z,980.30
2023-03-17T13:47:35.779Z,959.07
2023-03-17T13:50:09.469Z,907.13
2023-03-17T13:52:43.849Z,973.60
2023-03-17T13:55:35.971Z,965.67
2023-03-17T13:58:26.170Z,871.40
2023-03-17T14:01:02.550Z,999.27
2023-03-17T14:03:37.391Z,935.57
2023-03-17T14:06:08.271Z,928.17
2023-03-17T14:08:37.961Z,953.70
2023-03-17T14:11:16.934Z,976.70
2023-03-17T14:13:50.550Z,955.53
2023-03-17T14:16:25.339Z,948.70
2023-03-17T14:18:57.135Z,873.27
2023-03-17T14:21:27.064Z,897.77
2023-03-17T14:23:56.199Z,963.23
2023-03-17T14:26:27.749Z,999.90
2023-03-17T14:28:56.311Z,921.97
2023-03-17T14:31:26.852Z,946.80
2023-03-17T14:33:56.940Z,920.50
2023-03-17T14:36:26.246Z,999.90
2023-03-17T14:38:55.913Z,910.47
2023-03-17T14:41:27.458Z,961.83
2023-03-17T14:43:59.621Z,999.90
2023-03-17T14:46:32.018Z,959.37
2023-03-17T14:49:01.964Z,911.60
2023-03-17T14:51:33.375Z,907.03
2023-03-17T14:54:03.612Z,999.90
2023-03-17T14:56:37.289Z,999.90
2023-03-17T14:59:08.090Z,979.63
2023-03-17T15:01:39.718Z,962.27
2023-03-17T15:04:12.904Z,995.57
2023-03-17T15:06:49.862Z,939.03
2023-03-17T15:09:19.956Z,898.70
2023-03-17T15:11:50.298Z,999.90
2023-03-17T15:14:22.837Z,961.03
2023-03-17T15:16:53.003Z,830.63
2023-03-17T15:19:26.363Z,915.57
2023-03-17T15:21:57.139Z,969.17
2023-03-17T15:24:29.704Z,914.50
2023-03-17T15:27:03.802Z,972.77
2023-03-17T15:29:31.853Z,867.80
2023-03-17T15:32:07.715Z,966.17
2023-03-17T15:34:35.657Z,843.90
2023-03-17T15:37:03.708Z,950.30
2023-03-17T15:39:31.668Z,856.80
2023-03-17T15:41:59.724Z,855.80
2023-03-17T15:44:29.003Z,855.67
2023-03-17T15:46:56.955Z,936.63
2023-03-17T15:49:26.972Z,889.57
2023-03-17T15:51:55.120Z,880.57
2023-03-17T15:54:23.206Z,854.17
2023-03-17T15:56:51.495Z,735.00
2023-03-17T15:59:19.423Z,869.93
2023-03-17T16:01:48.903Z,899.93
2023-03-17T16:04:17.975Z,731.23
2023-03-17T16:06:48.118Z,981.10
2023-03-17T16:09:17.843Z,814.27
2023-03-17T16:11:45.854Z,703.33
2023-03-17T16:14:13.788Z,999.90
2023-03-17T16:16:45.782Z,671.87
2023-03-17T16:19:20.435Z,777.83
2023-03-17T16:21:49.097Z,783.43
2023-03-17T16:24:20.400Z,859.87
2023-03-17T16:26:49.247Z,819.13
2023-03-17T16:29:17.763Z,741.30
2023-03-17T16:31:48.912Z,580.23
2023-03-17T16:34:19.940Z,520.00
2023-03-17T16:36:48.441Z,847.37
2023-03-17T16:39:18.612Z,738.00
2023-03-17T16:41:48.067Z,999.90
2023-03-17T16:44:18.052Z,534.57
2023-03-17T16:46:46.187Z,451.63
2023-03-17T16:49:16.433Z,762.30
2023-03-17T16:51:46.026Z,724.77
2023-03-17T16:54:14.007Z,912.63
2023-03-17T16:56:43.183Z,854.93
2023-03-17T16:59:15.375Z,682.03
2023-03-17T17:01:43.780Z,877.77
2023-03-17T17:04:12.043Z,864.37
2023-03-17T17:06:40.026Z,990.10
2023-03-17T17:09:09.351Z,983.20
2023-03-17T17:11:37.311Z,999.90
2023-03-17T17:14:05.246Z,560.63
2023-03-17T17:16:36.432Z,439.40
2023-03-17T17:19:05.299Z,542.00
2023-03-17T17:21:33.952Z,487.53
2023-03-17T17:24:01.951Z,999.90
2023-03-17T17:26:31.296Z,896.90
2023-03-17T17:28:59.248Z,945.80
2023-03-17T17:31:27.216Z,943.60
2023-03-17T17:33:55.240Z,381.13
2023-03-17T17:36:24.139Z,685.60
2023-03-17T17:38:52.362Z,976.70
2023-03-17T17:41:21.580Z,606.17
2023-03-17T17:43:51.715Z,476.20
2023-03-17T17:46:21.305Z,495.27
2023-03-17T17:48:49.368Z,220.83
2023-03-17T17:51:17.466Z,447.57
2023-03-17T17:53:45.766Z,779.70
2023-03-17T17:56:15.941Z,437.00
2023-03-17T17:58:44.848Z,674.73
2023-03-17T18:01:19.612Z,597.27
2023-03-17T18:03:47.738Z,585.73
2023-03-17T18:06:17.150Z,583.93
2023-03-17T18:08:45.224Z,456.50
2023-03-17T18:11:13.523Z,762.00
2023-03-17T18:13:41.507Z,657.73
2023-03-17T18:16:10.782Z,591.60
2023-03-17T18:18:42.463Z,450.77
2023-03-17T18:21:10.840Z,512.10
2023-03-17T18:23:39.253Z,572.00
2023-03-17T18:26:07.646Z,571.27
2023-03-17T18:28:36.042Z,826.87
2023-03-17T18:31:09.583Z,422.33
2023-03-17T18:33:39.801Z,357.27
2023-03-17T18:36:08.828Z,533.60
2023-03-17T18:38:37.260Z,290.87
2023-03-17T18:41:07.766Z,353.27
2023-03-17T18:43:35.748Z,539.17
2023-03-17T18:46:03.715Z,836.10
2023-03-17T18:48:32.017Z,544.37
2023-03-17T18:51:01.630Z,230.80
2023-03-17T18:53:30.772Z,513.10
2023-03-17T18:55:59.855Z,220.17
2023-03-17T18:58:28.834Z,612.00
2023-03-17T19:00:59.954Z,136.77
2023-03-17T19:03:28.514Z,207.00
2023-03-17T19:05:57.044Z,726.47
2023-03-17T19:08:26.673Z,215.40
2023-03-17T19:10:54.615Z,479.77
2023-03-17T19:13:22.592Z,548.53
2023-03-17T19:15:50.821Z,231.27
2023-03-17T19:18:18.779Z,470.43
2023-03-17T19:20:46.814Z,328.93
2023-03-17T19:23:15.481Z,211.83
2023-03-17T19:25:44.888Z,538.53
2023-03-17T19:28:13.492Z,464.50
2023-03-17T19:30:41.988Z,578.57
2023-03-17T19:33:10.302Z,202.10
2023-03-17T19:35:38.343Z,367.50
2023-03-17T19:38:08.275Z,269.17
2023-03-17T19:40:36.991Z,498.93
2023-03-17T19:43:06.757Z,262.70
2023-03-17T19:45:34.905Z,115.37
2023-03-17T19:48:02.901Z,365.67
2023-03-17T19:50:32.865Z,336.57
2023-03-17T19:53:01.163Z,141.33
2023-03-17T19:55:29.861Z,139.77
2023-03-17T19:57:57.929Z,214.10
2023-03-17T20:00:27.359Z,150.97
2023-03-17T20:02:55.410Z,318.90
2023-03-17T20:05:23.541Z,402.60
2023-03-17T20:07:51.551Z,205.70
2023-03-17T20:10:20.001Z,150.40
2023-03-17T20:12:48.024Z,181.50
2023-03-17T20:15:16.591Z,207.33
2023-03-17T20:17:46.399Z,343.87
2023-03-17T20:20:15.392Z,190.70
2023-03-17T20:22:43.951Z,248.97
2023-03-17T20:25:12.421Z,359.10
2023-03-17T20:27:41.633Z,334.87
2023-03-17T20:30:12.290Z,247.87
2023-03-17T20:32:40.892Z,121.17
2023-03-17T20:35:11.259Z,391.97
2023-03-17T20:37:40.437Z,97.73
2023-03-17T20:40:10.792Z,221.37
2023-03-17T20:42:38.789Z,75.77
2023-03-17T20:45:08.837Z,188.40
2023-03-17T20:47:37.830Z,138.30
2023-03-17T20:50:08.745Z,87.03
2023-03-17T20:52:40.079Z,103.70
2023-03-17T20:55:09.323Z,209.40
2023-03-17T20:57:37.987Z,388.00
2023-03-17T21:00:08.252Z,106.97
2023-03-17T21:02:36.557Z,224.07
2023-03-17T21:05:04.834Z,246.63
2023-03-17T21:07:32.806Z,256.57
2023-03-17T21:10:02.341Z,308.23
2023-03-17T21:12:31.383Z,196.47
2023-03-17T21:14:59.344Z,196.83
2023-03-17T21:17:27.369Z,168.20
2023-03-17T21:19:56.690Z,210.30
2023-03-17T21:22:24.692Z,191.43
2023-03-17T21:24:53.035Z,231.90
2023-03-17T21:27:22.362Z,124.77
2023-03-17T21:29:50.310Z,95.23
2023-03-17T21:32:18.283Z,189.07
2023-03-17T21:34:47.125Z,282.70
2023-03-17T21:37:16.031Z,209.13
2023-03-17T21:39:44.638Z,301.27
2023-03-17T21:42:12.606Z,116.53
2023-03-17T21:44:42.105Z,97.33
2023-03-17T21:47:10.307Z,45.00
2023-03-17T21:49:38.581Z,501.63
2023-03-17T21:52:07.246Z,104.40
2023-03-17T21:54:36.267Z,374.70
2023-03-17T21:57:04.300Z,27.23
2023-03-17T21:59:34.411Z,98.93
2023-03-17T22:02:03.813Z,22.10
2023-03-17T22:04:31.998Z,158.73
2023-03-17T22:07:00.568Z,243.53
2023-03-17T22:09:29.456Z,54.13
2023-03-17T22:11:57.826Z,123.53
2023-03-17T22:14:25.842Z,156.93
2023-03-17T22:16:53.835Z,44.10
2023-03-17T22:19:23.177Z,33.87
2023-03-17T22:21:51.733Z,62.23
2023-03-17T22:24:19.855Z,165.80
2023-03-17T22:26:47.852Z,237.83
2023-03-17T22:29:16.368Z,159.87
2023-03-17T22:31:44.687Z,92.17
2023-03-17T22:34:12.710Z,38.37
2023-03-17T22:36:42.154Z,43.57
2023-03-17T22:39:10.840Z,46.17
2023-03-17T22:41:39.485Z,55.07
2023-03-17T22:44:09.264Z,126.50
2023-03-17T22:46:37.436Z,221.80
2023-03-17T22:49:05.984Z,52.60
2023-03-17T22:51:33.957Z,160.57
2023-03-17T22:54:03.790Z,147.97
2023-03-17T22:56:31.742Z,103.40
2023-03-17T22:58:59.792Z,81.70
2023-03-17T23:01:27.994Z,256.40
2023-03-17T23:03:57.012Z,309.53
2023-03-17T23:06:25.694Z,270.03
2023-03-17T23:08:53.695Z,138.20
2023-03-17T23:11:25.451Z,130.53
2023-03-17T23:13:54.241Z,81.37
2023-03-17T23:16:22.583Z,183.50
2023-03-17T23:18:50.837Z,166.43
2023-03-17T23:21:23.419Z,168.20
2023-03-17T23:23:51.396Z,257.73
2023-03-17T23:26:19.398Z,96.70
2023-03-17T23:28:49.602Z,333.13
2023-03-17T23:31:19.303Z,110.77
2023-03-17T23:33:47.955Z,170.07
2023-03-17T23:36:16.278Z,63.40
2023-03-17T23:38:45.525Z,64.60
2023-03-17T23:41:14.554Z,99.93
2023-03-17T23:43:43.979Z,161.57
2023-03-17T23:46:14.724Z,121.83
2023-03-17T23:48:43.233Z,193.90
2023-03-17T23:51:12.392Z,291.37
2023-03-17T23:53:41.706Z,233.50
2023-03-17T23:56:11.249Z,636.90
2023-03-17T23:58:39.261Z,195.67
